Time;durP1;ratioP1;P1;durP2;ratioP2;P2;SDS_P1;SDS_P2;PMS_P1;PMS_P2;Temp;Humidity;BMP_temperature;BMP_pressure;BME280_temperature;BME280_humidity;BME280_pressure;Samples;Min_cycle;Max_cycle;Signal;HPM_P1;HPM_P2
2024/02/09 00:02:22;;;;;;;16.13;4.03;;;13.90;99.90;;;;;;7384899;19;20055;-77
2024/02/09 00:04:51;;;;;;;13.02;4.18;;;14.00;99.90;;;;;;7386160;19;20362;-76
2024/02/09 00:07:21;;;;;;;14.40;4.47;;;14.00;99.90;;;;;;7381654;19;20014;-77
2024/02/09 00:09:49;;;;;;;16.48;4.38;;;14.10;99.90;;;;;;7404329;19;20011;-78
2024/02/09 00:12:20;;;;;;;15.00;3.92;;;14.00;99.90;;;;;;7381697;19;20007;-77
2024/02/09 00:14:51;;;;;;;11.48;4.22;;;13.90;99.90;;;;;;7384609;19;20276;-76
2024/02/09 00:17:22;;;;;;;17.60;3.80;;;13.90;99.90;;;;;;7385507;19;20421;-77
2024/02/09 00:19:51;;;;;;;10.90;3.70;;;14.00;99.90;;;;;;7382936;19;20014;-76
2024/02/09 00:22:19;;;;;;;9.82;3.55;;;14.10;99.90;;;;;;7382094;19;20006;-76
2024/02/09 00:24:48;;;;;;;23.90;4.47;;;14.20;99.90;;;;;;7401825;19;20014;-76
2024/02/09 00:27:17;;;;;;;13.82;3.63;;;14.00;99.90;;;;;;7381317;19;20007;-77
2024/02/09 00:29:45;;;;;;;15.68;3.60;;;14.10;99.90;;;;;;7382072;19;20031;-76
2024/02/09 00:32:15;;;;;;;11.77;3.95;;;14.10;99.90;;;;;;7382432;19;20291;-76
2024/02/09 00:34:46;;;;;;;14.52;3.47;;;14.20;99.90;;;;;;7385582;19;20021;-76
2024/02/09 00:37:15;;;;;;;7.43;3.55;;;14.20;99.90;;;;;;7408002;19;20015;-77
2024/02/09 00:39:43;;;;;;;14.73;3.42;;;14.20;99.90;;;;;;7383829;19;20020;-76
2024/02/09 00:42:13;;;;;;;15.70;3.95;;;14.10;99.90;;;;;;7381473;19;20336;-76
2024/02/09 00:44:43;;;;;;;12.32;3.72;;;14.20;99.90;;;;;;7381064;19;20003;-76
2024/02/09 00:47:11;;;;;;;13.23;3.65;;;14.20;99.90;;;;;;7382314;19;20027;-76
2024/02/09 00:49:41;;;;;;;9.70;3.15;;;14.20;99.90;;;;;;7384688;19;20279;-76
2024/02/09 00:52:14;;;;;;;13.25;4.45;;;14.20;99.90;;;;;;7401665;19;20011;-77
2024/02/09 00:54:44;;;;;;;17.50;3.92;;;14.40;99.90;;;;;;7380885;19;20014;-76
2024/02/09 00:57:12;;;;;;;11.20;3.65;;;14.30;99.90;;;;;;7380192;19;20006;-76
2024/02/09 00:59:42;;;;;;;11.95;3.55;;;14.30;99.90;;;;;;7380976;19;20027;-75
2024/02/09 01:02:11;;;;;;;10.80;3.10;;;14.40;99.90;;;;;;7381446;19;20006;-76
2024/02/09 01:04:41;;;;;;;7.43;2.92;;;14.40;99.90;;;;;;7379714;19;20066;-76
2024/02/09 01:07:13;;;;;;;14.80;3.95;;;14.40;99.90;;;;;;7402391;19;20028;-76
2024/02/09 01:09:42;;;;;;;10.73;3.50;;;14.10;99.90;;;;;;7380043;19;20007;-76
2024/02/09 02:46:17;;;;;;;6.20;2.72;;;14.20;99.90;;;;;;7399547;19;20015;-78
2024/02/09 03:04:58;;;;;;;7.18;2.53;;;14.20;99.90;;;;;;7380684;19;20788;-77
2024/02/09 03:07:26;;;;;;;11.70;2.83;;;14.10;99.90;;;;;;7400777;19;20011;-76
2024/02/09 03:09:56;;;;;;;6.40;2.75;;;14.10;99.90;;;;;;7376654;19;20012;-76
2024/02/09 03:12:27;;;;;;;9.73;2.40;;;13.80;99.90;;;;;;7380863;19;20015;-77
2024/02/09 03:14:59;;;;;;;5.10;2.28;;;13.90;99.90;;;;;;7380750;19;20027;-77
2024/02/09 03:17:27;;;;;;;11.15;2.53;;;14.00;99.90;;;;;;7378071;19;20007;-77
2024/02/09 03:20:00;;;;;;;15.48;3.05;;;13.90;99.90;;;;;;7377496;19;20027;-77
2024/02/09 03:22:30;;;;;;;12.35;2.88;;;14.00;99.90;;;;;;7410327;19;20021;-76
2024/02/09 03:25:02;;;;;;;7.75;2.50;;;14.10;99.90;;;;;;7382269;19;20066;-77
2024/02/09 03:27:33;;;;;;;9.18;2.88;;;14.10;99.90;;;;;;7383260;19;20019;-77
2024/02/09 03:30:06;;;;;;;11.70;2.50;;;14.10;99.90;;;;;;7383956;19;20240;-76
2024/02/09 03:32:36;;;;;;;10.35;3.00;;;14.00;99.90;;;;;;7383706;19;20291;-77
2024/02/09 03:35:06;;;;;;;12.10;2.70;;;14.00;99.90;;;;;;7384058;19;20010;-77
2024/02/09 03:37:35;;;;;;;7.78;2.70;;;14.00;99.90;;;;;;7404951;19;20010;-77
2024/02/09 03:40:05;;;;;;;8.93;2.75;;;14.10;99.90;;;;;;7387100;19;20011;-77
2024/02/09 03:42:33;;;;;;;9.30;2.97;;;14.00;99.90;;;;;;7386597;19;20366;-77
2024/02/09 03:45:06;;;;;;;9.73;2.58;;;14.00;99.90;;;;;;7384725;19;20332;-77
2024/02/09 03:47:36;;;;;;;9.13;2.30;;;14.00;99.90;;;;;;7388799;19;20493;-76
2024/02/09 03:50:05;;;;;;;8.27;2.42;;;14.00;99.90;;;;;;7385589;19;20294;-76
2024/02/09 03:52:34;;;;;;;11.30;2.70;;;14.10;99.90;;;;;;7408320;19;20308;-77
2024/02/09 03:55:03;;;;;;;11.65;2.80;;;14.00;99.90;;;;;;7386512;19;20354;-77
2024/02/09 03:57:32;;;;;;;9.48;2.50;;;14.00;99.90;;;;;;7382248;19;20015;-77
2024/02/09 04:00:01;;;;;;;10.68;2.30;;;14.00;99.90;;;;;;7382913;19;20010;-77
2024/02/09 04:02:32;;;;;;;6.90;2.63;;;14.00;99.90;;;;;;7381267;19;20011;-77
2024/02/09 04:05:02;;;;;;;8.35;2.30;;;14.00;99.90;;;;;;7386704;19;20018;-77
2024/02/09 04:07:31;;;;;;;9.57;2.50;;;14.10;99.90;;;;;;7408843;19;20023;-76
2024/02/09 04:10:01;;;;;;;15.13;3.10;;;14.00;99.90;;;;;;7382807;19;20069;-77
2024/02/09 04:12:30;;;;;;;14.23;3.08;;;14.10;99.90;;;;;;7384260;19;20006;-76
2024/02/09 04:15:01;;;;;;;5.28;2.47;;;14.10;99.90;;;;;;7380879;19;20354;-77
2024/02/09 04:17:33;;;;;;;10.98;2.70;;;14.00;99.90;;;;;;7383000;19;20020;-76
2024/02/09 04:20:01;;;;;;;;;;;13.90;99.90;;;;;;7383298;19;20854;-76
2024/02/09 04:22:30;;;;;;;4.25;1.98;;;14.00;99.90;;;;;;7403536;19;20010;-77
2024/02/09 04:24:59;;;;;;;10.57;2.78;;;13.40;99.90;;;;;;7380415;19;20300;-77
2024/02/09 04:27:30;;;;;;;9.63;2.40;;;13.60;99.90;;;;;;7381609;19;20066;-77
2024/02/09 04:29:59;;;;;;;14.80;2.78;;;13.80;99.90;;;;;;7381277;19;20418;-77
2024/02/09 04:32:29;;;;;;;10.80;2.50;;;13.80;99.90;;;;;;7380040;19;20019;-76
2024/02/09 04:35:00;;;;;;;9.45;2.78;;;13.70;99.90;;;;;;7381759;19;20003;-76
2024/02/09 04:37:29;;;;;;;6.68;2.40;;;13.60;99.90;;;;;;7403057;19;20070;-77
2024/02/09 04:39:58;;;;;;;9.68;2.90;;;13.80;99.90;;;;;;7380972;19;20647;-77
2024/02/09 04:42:26;;;;;;;8.60;2.78;;;13.50;99.90;;;;;;7383632;19;20011;-77
2024/02/09 04:44:55;;;;;;;6.78;2.33;;;13.50;99.90;;;;;;7384678;19;20058;-77
2024/02/09 04:47:24;;;;;;;10.45;2.80;;;13.60;99.90;;;;;;7384501;19;20070;-77
2024/02/09 04:49:52;;;;;;;8.50;3.05;;;13.70;99.90;;;;;;7382002;19;20011;-77
2024/02/09 04:52:27;;;;;;;9.02;2.45;;;13.90;99.90;;;;;;7400180;19;20295;-77
2024/02/09 04:54:56;;;;;;;9.77;2.97;;;13.70;99.90;;;;;;7382918;19;20010;-77
2024/02/09 04:57:27;;;;;;;6.55;2.50;;;13.50;99.90;;;;;;7383172;19;20439;-77
2024/02/09 04:59:56;;;;;;;8.57;2.53;;;13.80;99.90;;;;;;7382209;19;20077;-77
2024/02/09 05:02:24;;;;;;;7.70;2.00;;;13.60;99.90;;;;;;7380965;19;20430;-77
2024/02/09 05:04:53;;;;;;;10.45;2.45;;;13.70;99.90;;;;;;7380371;19;20066;-76
2024/02/09 05:07:24;;;;;;;10.85;2.63;;;13.70;99.90;;;;;;7402007;19;20002;-77
2024/02/09 05:09:53;;;;;;;10.15;2.42;;;13.80;99.90;;;;;;7381451;19;20003;-77
2024/02/09 05:12:22;;;;;;;8.55;2.75;;;13.70;99.90;;;;;;7380857;19;20016;-77
2024/02/09 05:14:52;;;;;;;5.97;2.33;;;13.70;99.90;;;;;;7379975;19;19999;-77
2024/02/09 05:17:22;;;;;;;4.85;2.80;;;13.80;99.90;;;;;;7381040;19;20006;-77
2024/02/09 05:19:56;;;;;;;12.90;2.60;;;13.90;99.90;;;;;;7391209;19;20240;-77
2024/02/09 05:22:28;;;;;;;8.95;2.30;;;13.70;99.90;;;;;;7401974;19;20011;-77
2024/02/09 05:24:57;;;;;;;7.78;2.53;;;13.80;99.90;;;;;;7379110;19;20061;-77
2024/02/09 05:27:25;;;;;;;9.50;2.40;;;13.90;99.90;;;;;;7379820;19;20371;-77
2024/02/09 05:29:54;;;;;;;13.02;2.47;;;13.90;99.90;;;;;;7379254;19;20102;-77
2024/02/09 05:32:24;;;;;;;6.15;2.63;;;13.70;99.90;;;;;;7380310;19;20024;-76
2024/02/09 05:34:57;;;;;;;9.50;2.25;;;14.00;99.90;;;;;;7383334;19;20027;-77
2024/02/09 05:37:28;;;;;;;9.88;2.30;;;13.80;99.90;;;;;;7408189;19;20002;-77
2024/02/09 05:39:57;;;;;;;12.57;2.65;;;13.90;99.90;;;;;;7385584;19;19999;-76
2024/02/09 05:42:26;;;;;;;8.55;3.45;;;14.10;99.90;;;;;;7378046;19;20225;-77
2024/02/09 05:44:54;;;;;;;6.95;2.40;;;14.20;99.90;;;;;;7379362;19;20020;-77
2024/02/09 05:47:30;;;;;;;9.85;2.95;;;14.10;99.90;;;;;;7384234;19;20011;-78
2024/02/09 05:49:58;;;;;;;11.77;2.33;;;14.00;99.90;;;;;;7378924;19;20015;-75
2024/02/09 05:52:30;;;;;;;9.68;2.50;;;13.50;99.90;;;;;;7399978;19;20359;-76
2024/02/09 05:54:59;;;;;;;8.93;2.83;;;13.50;99.90;;;;;;7381609;19;20043;-74
2024/02/09 05:57:31;;;;;;;8.18;2.60;;;13.70;99.90;;;;;;7379614;19;20019;-73
2024/02/09 05:59:59;;;;;;;5.30;2.40;;;13.90;99.90;;;;;;7380366;19;20005;-74
2024/02/09 06:02:30;;;;;;;10.88;3.33;;;13.90;99.90;;;;;;7379215;19;20011;-75
2024/02/09 06:05:01;;;;;;;14.47;2.43;;;14.10;99.90;;;;;;7381248;19;19999;-76
2024/02/09 06:07:33;;;;;;;8.63;2.85;;;14.10;99.90;;;;;;7404176;19;20009;-75
2024/02/09 06:10:06;;;;;;;11.05;2.30;;;13.90;99.90;;;;;;7383607;19;20013;-77
2024/02/09 06:12:38;;;;;;;42.15;19.17;;;13.90;99.90;;;;;;7380386;19;20006;-79
2024/02/09 06:15:08;;;;;;;;;;;14.00;99.90;;;;;;7380966;19;20080;-77
2024/02/09 06:17:36;;;;;;;4.65;2.40;;;14.10;99.90;;;;;;7381993;19;19966;-76
2024/02/09 06:20:05;;;;;;;8.43;2.92;;;14.10;99.90;;;;;;7380185;19;20007;-75
2024/02/09 06:22:37;;;;;;;7.72;2.40;;;14.10;99.90;;;;;;7399441;19;20006;-74
2024/02/09 06:25:06;;;;;;;5.47;2.00;;;14.00;99.90;;;;;;7377395;19;20002;-74
2024/02/09 06:27:37;;;;;;;11.88;2.60;;;14.10;99.90;;;;;;7378573;19;20013;-74
2024/02/09 06:30:10;;;;;;;14.07;2.85;;;14.00;99.90;;;;;;7378288;19;20338;-74
2024/02/09 06:32:39;;;;;;;7.07;2.60;;;13.90;99.90;;;;;;7378334;19;20691;-75
2024/02/09 06:35:08;;;;;;;9.65;2.30;;;13.90;99.90;;;;;;7379430;19;20051;-75
2024/02/09 06:37:40;;;;;;;16.08;2.92;;;14.10;99.90;;;;;;7398891;19;20238;-74
2024/02/09 06:40:13;;;;;;;10.68;2.42;;;13.90;99.90;;;;;;7377343;19;20275;-74
2024/02/09 06:42:43;;;;;;;13.48;2.58;;;13.70;99.90;;;;;;7377579;19;20254;-74
2024/02/09 06:45:14;;;;;;;11.05;2.75;;;13.80;99.90;;;;;;7377104;19;20019;-74
2024/02/09 06:47:43;;;;;;;10.52;2.88;;;13.80;99.90;;;;;;7377623;19;19999;-73
2024/02/09 06:50:12;;;;;;;9.30;2.05;;;14.00;99.90;;;;;;7377495;19;20062;-74
2024/02/09 06:52:47;;;;;;;6.82;2.35;;;13.80;99.90;;;;;;7398664;19;20016;-73
2024/02/09 06:55:18;;;;;;;11.93;2.78;;;13.70;99.90;;;;;;7377653;19;20017;-74
2024/02/09 06:57:46;;;;;;;7.55;2.22;;;13.60;99.90;;;;;;7384228;19;20389;-75
2024/02/09 07:00:17;;;;;;;8.02;2.58;;;13.90;99.90;;;;;;7382964;19;20003;-75
2024/02/09 07:02:48;;;;;;;7.22;2.40;;;14.00;99.90;;;;;;7384418;19;20019;-74
2024/02/09 07:05:19;;;;;;;12.45;2.65;;;13.70;99.90;;;;;;7384285;19;19996;-74
2024/02/09 07:07:52;;;;;;;9.90;2.60;;;14.00;99.90;;;;;;7405923;19;20002;-74
2024/02/09 07:10:23;;;;;;;14.30;2.65;;;13.90;99.90;;;;;;7383409;19;20079;-74
2024/02/09 07:12:54;;;;;;;15.27;2.90;;;13.90;99.90;;;;;;7383743;19;20043;-74
2024/02/09 07:15:23;;;;;;;6.45;2.88;;;14.00;99.90;;;;;;7385137;19;20077;-73
2024/02/09 07:17:56;;;;;;;11.57;2.90;;;14.10;99.90;;;;;;7384687;19;20012;-74
2024/02/09 07:20:24;;;;;;;10.63;2.67;;;14.30;99.90;;;;;;7382754;19;20006;-73
2024/02/09 07:22:55;;;;;;;10.13;2.88;;;14.30;99.90;;;;;;7406370;19;20106;-73
2024/02/09 07:25:24;;;;;;;10.60;2.67;;;14.20;99.90;;;;;;7383748;19;20007;-74
2024/02/09 07:27:53;;;;;;;11.98;2.92;;;13.80;99.90;;;;;;7383898;19;20470;-74
2024/02/09 07:30:25;;;;;;;8.55;2.95;;;14.00;99.90;;;;;;7384131;19;20015;-74
2024/02/09 07:32:53;;;;;;;9.40;2.22;;;14.00;99.90;;;;;;7387043;19;20580;-74
2024/02/09 07:35:22;;;;;;;7.47;2.60;;;13.90;99.90;;;;;;7384347;19;20027;-74
2024/02/09 07:37:50;;;;;;;7.60;2.47;;;14.10;99.90;;;;;;7405875;19;20055;-74
2024/02/09 07:40:22;;;;;;;7.40;2.60;;;14.10;99.90;;;;;;7383515;19;20086;-74
2024/02/09 07:42:50;;;;;;;9.02;2.63;;;14.00;99.90;;;;;;7382526;19;20031;-74
2024/02/09 07:45:20;;;;;;;9.77;3.08;;;14.10;99.90;;;;;;7383675;19;20094;-74
2024/02/09 07:47:49;;;;;;;9.57;2.78;;;14.20;99.90;;;;;;7383142;19;20020;-74
2024/02/09 07:50:18;;;;;;;10.15;2.83;;;14.40;99.90;;;;;;7383008;19;20536;-74
2024/02/09 07:52:46;;;;;;;14.98;2.70;;;14.30;99.90;;;;;;7404883;19;20011;-74
2024/02/09 07:55:18;;;;;;;15.65;3.13;;;14.30;99.90;;;;;;7382805;19;20028;-74
2024/02/09 07:57:49;;;;;;;9.07;2.67;;;14.30;99.90;;;;;;7382483;19;20050;-75
2024/02/09 08:00:20;;;;;;;14.77;3.00;;;14.40;99.90;;;;;;7382614;19;20066;-74
2024/02/09 08:02:49;;;;;;;8.10;2.67;;;14.50;99.90;;;;;;7382640;19;20009;-74
2024/02/09 08:05:20;;;;;;;9.45;3.03;;;14.50;99.90;;;;;;7382576;19;20477;-74
2024/02/09 08:07:49;;;;;;;7.82;2.80;;;14.40;99.90;;;;;;7399474;19;20013;-75
2024/02/09 08:10:18;;;;;;;5.38;2.28;;;14.50;99.90;;;;;;7381794;19;20383;-74
2024/02/09 08:12:51;;;;;;;22.27;3.30;;;14.60;99.90;;;;;;7381927;19;20280;-74
2024/02/09 08:15:20;;;;;;;6.82;3.08;;;14.60;99.90;;;;;;7383326;19;20006;-73
2024/02/09 08:17:52;;;;;;;13.95;2.92;;;14.70;99.90;;;;;;7383249;19;20054;-74
2024/02/09 08:20:21;;;;;;;7.47;2.55;;;14.80;99.90;;;;;;7382745;19;20334;-73
2024/02/09 08:22:50;;;;;;;13.50;3.28;;;14.40;99.90;;;;;;7404075;19;20250;-74
2024/02/09 08:25:19;;;;;;;13.13;2.97;;;14.60;99.90;;;;;;7384295;19;20002;-74
2024/02/09 08:27:50;;;;;;;8.95;2.67;;;14.50;99.90;;;;;;7384925;19;20010;-74
2024/02/09 08:30:19;;;;;;;12.88;3.00;;;14.60;99.90;;;;;;7383905;19;20023;-75
2024/02/09 08:32:48;;;;;;;8.38;2.70;;;14.20;99.90;;;;;;7383241;19;20522;-75
2024/02/09 08:35:18;;;;;;;10.85;2.85;;;14.40;99.90;;;;;;7382246;19;20058;-74
2024/02/09 08:37:47;;;;;;;11.95;2.90;;;14.20;99.90;;;;;;7403580;19;20007;-74
2024/02/09 08:40:16;;;;;;;10.90;2.78;;;14.50;99.90;;;;;;7380186;19;20002;-74
2024/02/09 08:42:45;;;;;;;17.40;2.85;;;14.60;99.90;;;;;;7380529;19;20027;-75
2024/02/09 08:45:16;;;;;;;9.23;2.58;;;14.70;99.90;;;;;;7381276;19;20297;-74
2024/02/09 08:47:45;;;;;;;16.48;2.67;;;14.50;99.90;;;;;;7379878;19;20070;-74
2024/02/09 08:50:13;;;;;;;16.08;2.90;;;14.60;99.90;;;;;;7381298;19;20013;-74
2024/02/09 08:52:42;;;;;;;8.52;2.70;;;14.70;99.90;;;;;;7402553;19;20246;-74
2024/02/09 08:55:12;;;;;;;12.77;2.75;;;14.70;99.90;;;;;;7380580;19;20056;-73
2024/02/09 08:57:42;;;;;;;13.35;3.30;;;14.90;99.90;;;;;;7381598;19;20032;-74
2024/02/09 09:00:11;;;;;;;14.90;2.45;;;14.80;99.90;;;;;;7380804;19;20070;-74
2024/02/09 09:02:43;;;;;;;18.27;3.33;;;14.90;99.90;;;;;;7381023;19;20063;-75
2024/02/09 09:05:11;;;;;;;16.58;3.10;;;14.80;99.90;;;;;;7380641;19;20355;-74
2024/02/09 09:07:44;;;;;;;10.15;2.58;;;15.00;99.90;;;;;;7400696;19;20006;-75
2024/02/09 09:10:13;;;;;;;19.40;2.90;;;14.90;99.90;;;;;;7380011;19;20007;-75
2024/02/09 09:12:42;;;;;;;13.80;2.63;;;14.80;99.90;;;;;;7380210;19;20071;-75
2024/02/09 09:15:12;;;;;;;13.52;2.70;;;14.60;99.90;;;;;;7383075;19;20013;-73
2024/02/09 09:17:44;;;;;;;15.70;2.80;;;14.50;99.90;;;;;;7380769;19;20346;-74
2024/02/09 09:20:13;;;;;;;8.75;2.20;;;14.60;99.90;;;;;;7391437;19;20024;-74
2024/02/09 09:22:42;;;;;;;14.80;2.80;;;14.70;99.90;;;;;;7400211;19;20228;-74
2024/02/09 09:25:11;;;;;;;14.32;3.30;;;14.90;99.90;;;;;;7379456;19;20050;-74
2024/02/09 09:27:43;;;;;;;15.93;3.42;;;14.90;99.90;;;;;;7379093;19;20026;-75
2024/02/09 09:30:12;;;;;;;16.77;2.67;;;14.90;99.90;;;;;;7379804;19;20071;-74
2024/02/09 09:32:43;;;;;;;11.20;2.58;;;14.90;99.90;;;;;;7378780;19;20006;-74
2024/02/09 09:35:14;;;;;;;10.43;2.25;;;14.80;99.90;;;;;;7397645;19;20027;-75
2024/02/09 09:37:44;;;;;;;16.88;2.88;;;14.80;99.90;;;;;;7401203;19;20009;-75
2024/02/09 09:40:14;;;;;;;15.23;2.97;;;14.80;99.90;;;;;;7379233;19;20235;-75
2024/02/09 09:42:44;;;;;;;18.40;2.75;;;15.00;99.90;;;;;;7379123;19;20082;-74
2024/02/09 09:45:13;;;;;;;14.95;3.08;;;14.80;99.90;;;;;;7379347;19;20228;-74
2024/02/09 09:47:44;;;;;;;12.27;2.60;;;14.80;99.90;;;;;;7378533;19;20139;-74
2024/02/09 09:50:14;;;;;;;;;;;14.80;99.90;;;;;;7389538;19;20236;-75
2024/02/09 09:52:50;;;;;;;12.18;2.85;;;15.00;99.90;;;;;;7400100;19;20249;-74
2024/02/09 09:55:22;;;;;;;14.10;2.70;;;15.10;99.90;;;;;;7378511;19;20031;-74
2024/02/09 09:57:52;;;;;;;16.63;2.67;;;14.90;99.90;;;;;;7379673;19;20010;-74
2024/02/09 10:00:23;;;;;;;17.27;2.72;;;15.10;99.90;;;;;;7379190;19;20022;-74
2024/02/09 10:02:55;;;;;;;14.55;3.00;;;15.10;99.90;;;;;;7379258;19;20010;-74
2024/02/09 10:05:24;;;;;;;18.48;2.50;;;14.90;99.90;;;;;;7378857;19;20006;-74
2024/02/09 10:07:53;;;;;;;21.05;3.05;;;15.20;99.90;;;;;;7399534;19;20068;-75
2024/02/09 10:10:24;;;;;;;11.20;3.03;;;15.30;99.90;;;;;;7377880;19;20015;-74
2024/02/09 10:13:04;;;;;;;17.15;3.28;;;15.50;99.90;;;;;;7378051;19;20002;-74
2024/02/09 10:15:33;;;;;;;20.13;3.27;;;15.50;99.90;;;;;;7378389;19;20058;-75
2024/02/09 10:18:04;;;;;;;10.90;2.72;;;15.50;99.90;;;;;;7378456;19;20287;-74
2024/02/09 10:20:33;;;;;;;;;;;15.70;99.90;;;;;;7380861;19;20066;-74
2024/02/09 10:23:03;;;;;;;17.17;2.80;;;15.70;99.90;;;;;;7399585;19;19911;-74
2024/02/09 10:25:32;;;;;;;18.10;2.47;;;15.60;99.90;;;;;;7377679;19;20002;-74
2024/02/09 10:28:02;;;;;;;16.08;2.85;;;15.50;99.90;;;;;;7377830;19;20063;-75
2024/02/09 10:30:31;;;;;;;12.50;2.88;;;15.60;99.90;;;;;;7376331;19;20079;-75
2024/02/09 10:33:00;;;;;;;15.02;3.35;;;15.70;99.90;;;;;;7377856;19;20489;-74
2024/02/09 10:35:31;;;;;;;14.65;2.97;;;15.70;99.90;;;;;;7377753;19;20284;-75
2024/02/09 10:38:00;;;;;;;18.52;3.30;;;15.50;99.90;;;;;;7399577;19;20058;-75
2024/02/09 10:40:29;;;;;;;20.30;2.90;;;15.60;99.90;;;;;;7377564;19;20010;-74
2024/02/09 10:43:00;;;;;;;16.02;2.90;;;15.60;99.90;;;;;;7379926;19;20051;-75
2024/02/09 10:45:32;;;;;;;14.48;2.67;;;15.60;99.90;;;;;;7384867;19;20006;-75
2024/02/09 10:48:02;;;;;;;19.27;2.95;;;15.60;99.90;;;;;;7384704;19;20007;-74
2024/02/09 10:50:36;;;;;;;13.40;3.00;;;15.70;99.90;;;;;;7384633;19;20006;-74
2024/02/09 10:53:10;;;;;;;21.10;3.00;;;15.80;99.90;;;;;;7404077;19;20007;-74
2024/02/09 10:55:47;;;;;;;12.48;3.10;;;15.80;99.90;;;;;;7377651;19;20291;-74
2024/02/09 10:58:19;;;;;;;19.02;4.00;;;15.80;99.90;;;;;;7377035;19;20003;-74
2024/02/09 11:00:49;;;;;;;19.70;2.97;;;15.80;99.90;;;;;;7377326;19;20002;-73
2024/02/09 11:03:19;;;;;;;15.52;2.65;;;15.80;99.90;;;;;;7377661;19;20445;-73
2024/02/09 11:05:50;;;;;;;16.35;3.35;;;15.70;99.90;;;;;;7377994;19;20002;-74
2024/02/09 11:08:20;;;;;;;;;;;15.80;99.90;;;;;;7397951;19;20345;-74
2024/02/09 11:10:59;;;;;;;11.50;2.88;;;15.90;99.90;;;;;;7376757;19;19911;-74
2024/02/09 11:13:28;;;;;;;27.38;3.35;;;15.90;99.90;;;;;;7375921;19;20394;-74
2024/02/09 11:15:58;;;;;;;14.48;3.30;;;15.30;99.90;;;;;;7377677;19;20016;-74
2024/02/09 11:18:33;;;;;;;11.80;2.90;;;15.30;99.90;;;;;;7376526;19;20011;-74
2024/02/09 11:21:07;;;;;;;27.38;2.92;;;15.30;99.90;;;;;;7376607;19;20006;-74
2024/02/09 11:23:40;;;;;;;15.07;2.67;;;15.60;99.90;;;;;;7375377;19;20699;-74
2024/02/09 11:26:13;;;;;;;15.80;3.15;;;15.70;99.90;;;;;;7397580;19;20358;-74
2024/02/09 11:28:42;;;;;;;15.82;3.10;;;15.80;99.90;;;;;;7373999;19;20003;-75
2024/02/09 11:31:12;;;;;;;16.95;2.70;;;15.60;99.90;;;;;;7375912;19;20011;-74
2024/02/09 11:33:42;;;;;;;17.52;2.70;;;15.70;99.90;;;;;;7377022;19;20022;-75
2024/02/09 11:36:14;;;;;;;20.15;2.88;;;15.60;99.90;;;;;;7376231;19;20019;-75
2024/02/09 11:38:43;;;;;;;14.63;2.70;;;15.60;99.90;;;;;;7376015;19;20006;-74
2024/02/09 11:41:12;;;;;;;17.40;3.30;;;15.70;99.90;;;;;;7398107;19;20007;-74
2024/02/09 11:43:41;;;;;;;13.50;3.28;;;15.80;99.90;;;;;;7380950;19;20011;-74
2024/02/09 11:46:10;;;;;;;15.93;2.83;;;15.80;99.90;;;;;;7382792;19;20054;-74
2024/02/09 11:48:40;;;;;;;19.20;3.42;;;15.50;99.90;;;;;;7382272;19;20069;-74
2024/02/09 11:51:10;;;;;;;23.95;3.20;;;15.70;99.90;;;;;;7383548;19;20009;-74
2024/02/09 11:53:41;;;;;;;17.67;3.42;;;15.70;99.90;;;;;;7382433;19;20231;-73
2024/02/09 11:56:10;;;;;;;19.83;2.92;;;15.70;99.90;;;;;;7404763;19;20059;-73
2024/02/09 11:58:39;;;;;;;19.15;2.47;;;15.60;99.90;;;;;;7382288;19;20078;-74
2024/02/09 12:01:08;;;;;;;17.25;3.22;;;15.70;99.90;;;;;;7382325;19;20066;-74
2024/02/09 12:03:37;;;;;;;15.90;2.67;;;15.80;99.90;;;;;;7382612;19;20395;-74
2024/02/09 12:06:06;;;;;;;15.38;2.97;;;15.90;99.90;;;;;;7382116;19;20430;-75
2024/02/09 12:08:35;;;;;;;10.02;3.42;;;16.00;99.90;;;;;;7380820;19;20014;-74
2024/02/09 12:11:07;;;;;;;16.98;3.05;;;16.00;99.90;;;;;;7402712;19;20008;-75
2024/02/09 12:13:35;;;;;;;;;;;16.10;99.90;;;;;;7382092;19;20011;-77
2024/02/09 12:16:02;;;;;;;134.20;54.55;;;16.30;99.90;;;;;;7382460;19;19997;-76
2024/02/09 12:18:30;;;;;;;28.90;9.95;;;16.40;99.90;;;;;;7386746;19;20011;-75
2024/02/09 12:21:00;;;;;;;28.48;5.30;;;16.40;99.90;;;;;;7385902;19;19999;-75
2024/02/09 12:23:29;;;;;;;16.65;3.70;;;16.50;99.90;;;;;;7408625;19;20035;-77
2024/02/09 12:26:05;;;;;;;19.08;3.72;;;16.50;99.90;;;;;;7385423;19;19998;-77
2024/02/09 12:28:38;;;;;;;19.40;3.03;;;16.50;99.90;;;;;;7381254;19;20350;-76
2024/02/09 12:31:10;;;;;;;12.57;3.17;;;16.40;99.90;;;;;;7382170;19;20007;-77
2024/02/09 12:33:44;;;;;;;17.00;3.00;;;16.50;99.90;;;;;;7385206;19;20418;-78
2024/02/09 12:36:19;;;;;;;16.10;2.70;;;16.50;99.90;;;;;;7384576;19;20006;-78
2024/02/09 12:38:48;;;;;;;19.60;3.00;;;16.50;99.90;;;;;;7387317;19;20015;-80
2024/02/09 12:41:18;;;;;;;16.17;2.75;;;16.60;99.90;;;;;;7411449;19;20019;-80
2024/02/09 12:43:59;;;;;;;19.08;2.65;;;16.60;99.90;;;;;;7383316;19;20003;-80
2024/02/09 12:46:28;;;;;;;20.98;3.60;;;16.60;99.90;;;;;;7385691;19;20002;-80
2024/02/09 12:49:08;;;;;;;14.40;3.22;;;16.40;99.90;;;;;;7383145;19;20035;-78
2024/02/09 12:51:36;;;;;;;21.23;3.60;;;16.30;99.90;;;;;;7382510;19;20007;-77
2024/02/09 12:54:09;;;;;;;16.58;3.47;;;16.40;99.90;;;;;;7384016;19;20014;-76
2024/02/09 12:56:38;;;;;;;12.05;2.67;;;16.40;99.90;;;;;;7386790;19;20020;-76
2024/02/09 12:59:10;;;;;;;19.35;2.80;;;16.30;99.90;;;;;;7403262;19;20006;-75
2024/02/09 13:01:41;;;;;;;18.95;3.05;;;16.40;99.90;;;;;;7382026;19;20009;-76
2024/02/09 13:04:21;;;;;;;12.25;3.47;;;16.40;99.90;;;;;;7385548;19;20027;-78
2024/02/09 13:06:53;;;;;;;20.08;3.65;;;16.30;99.90;;;;;;7387786;19;20007;-79
2024/02/09 13:09:40;;;;;;;11.05;2.55;;;16.40;99.90;;;;;;7391700;19;20031;-81
2024/02/09 13:12:09;;;;;;;18.02;3.30;;;16.20;99.90;;;;;;7388500;19;20026;-76
2024/02/09 13:14:40;;;;;;;25.13;3.95;;;16.20;99.90;;;;;;7407589;19;20063;-76
2024/02/09 13:17:09;;;;;;;21.30;3.03;;;16.00;99.90;;;;;;7383865;19;20002;-78
2024/02/09 13:19:39;;;;;;;10.43;2.95;;;16.00;99.90;;;;;;7383533;19;20036;-78
2024/02/09 13:22:08;;;;;;;19.52;3.60;;;16.20;99.90;;;;;;7384073;19;20003;-79
2024/02/09 13:24:39;;;;;;;16.80;3.47;;;15.90;99.90;;;;;;7380618;19;20041;-75
2024/02/09 13:27:12;;;;;;;13.70;3.13;;;15.90;99.90;;;;;;7381169;19;20027;-75
2024/02/09 13:29:44;;;;;;;15.30;3.45;;;15.70;99.90;;;;;;7377066;19;20522;-75
2024/02/09 13:32:13;;;;;;;12.90;2.78;;;15.90;99.90;;;;;;7405791;19;20014;-76
2024/02/09 13:34:42;;;;;;;17.85;3.25;;;15.80;99.90;;;;;;7384809;19;20033;-78
2024/02/09 13:37:11;;;;;;;13.13;3.00;;;15.90;99.90;;;;;;7384195;19;20102;-77
2024/02/09 13:39:39;;;;;;;18.95;3.20;;;16.00;99.90;;;;;;7381604;19;20006;-78
2024/02/09 13:42:08;;;;;;;15.55;2.97;;;16.00;99.90;;;;;;7383370;19;19998;-80
2024/02/09 13:44:38;;;;;;;17.75;3.65;;;16.10;99.90;;;;;;7404368;19;20027;-79
2024/02/09 13:47:11;;;;;;;20.90;3.78;;;16.20;99.90;;;;;;7387072;19;20106;-77
2024/02/09 13:49:39;;;;;;;22.35;4.00;;;15.80;99.90;;;;;;7379687;19;20223;-75
2024/02/09 13:52:08;;;;;;;20.30;3.60;;;15.60;99.90;;;;;;7380076;19;20052;-75
2024/02/09 13:54:37;;;;;;;19.92;3.42;;;15.70;99.90;;;;;;7379051;19;20014;-75
2024/02/09 13:57:06;;;;;;;15.65;3.58;;;16.00;99.90;;;;;;7381174;19;20017;-74
2024/02/09 13:59:37;;;;;;;11.73;3.13;;;16.00;99.90;;;;;;7400844;19;20018;-74
2024/02/09 14:02:06;;;;;;;16.92;3.17;;;16.20;99.90;;;;;;7381452;19;20074;-76
2024/02/09 14:04:37;;;;;;;11.63;3.17;;;16.30;99.90;;;;;;7376758;19;20003;-77
2024/02/09 14:07:08;;;;;;;15.18;3.05;;;16.20;99.90;;;;;;7380735;19;20005;-78
2024/02/09 14:09:37;;;;;;;14.00;3.22;;;15.80;99.90;;;;;;7381226;19;20424;-77
2024/02/09 14:12:07;;;;;;;16.23;3.53;;;16.00;99.90;;;;;;7380941;19;20071;-77
2024/02/09 14:14:35;;;;;;;15.32;3.08;;;15.80;99.90;;;;;;7402399;19;20011;-77
2024/02/09 14:17:06;;;;;;;10.35;3.65;;;16.00;99.90;;;;;;7379380;19;20630;-77
2024/02/09 14:19:37;;;;;;;18.10;3.33;;;16.10;99.90;;;;;;7380277;19;20002;-78
2024/02/09 14:22:07;;;;;;;15.55;3.13;;;16.10;99.90;;;;;;7384935;19;20006;-78
2024/02/09 14:24:38;;;;;;;15.77;3.05;;;16.10;99.90;;;;;;7408151;19;20019;-78
2024/02/09 14:27:11;;;;;;;16.48;3.20;;;16.20;99.90;;;;;;7385538;19;20011;-77
2024/02/09 14:29:41;;;;;;;14.77;2.83;;;16.10;99.90;;;;;;7383931;19;20094;-77
2024/02/09 14:32:11;;;;;;;21.00;3.72;;;16.10;99.90;;;;;;7383267;19;20240;-78
2024/02/09 14:34:43;;;;;;;18.08;3.38;;;16.10;99.90;;;;;;7383369;19;20009;-77
2024/02/09 14:37:14;;;;;;;12.38;3.13;;;16.20;99.90;;;;;;7383040;19;20431;-77
2024/02/09 14:39:44;;;;;;;17.05;3.08;;;16.20;99.90;;;;;;7408310;19;20019;-81
2024/02/09 14:42:14;;;;;;;60.15;23.73;;;16.10;99.90;;;;;;7384612;19;20102;-77
2024/02/09 14:44:47;;;;;;;43.33;14.55;;;16.20;99.90;;;;;;7382447;19;20011;-77
2024/02/09 14:47:17;;;;;;;40.85;16.85;;;16.20;99.90;;;;;;7382015;19;20059;-77